createdAt,value
2023-05-18T00:00:32.672Z,11.19
2023-05-18T00:03:05.962Z,11.23
2023-05-18T00:05:38.435Z,11.23
2023-05-18T00:08:08.364Z,11.50
2023-05-18T00:11:06.280Z,11.37
2023-05-18T00:13:35.832Z,11.08
2023-05-18T00:16:07.514Z,11.01
2023-05-18T00:18:37.959Z,10.85
2023-05-18T00:21:06.700Z,10.92
2023-05-18T00:23:35.816Z,10.83
2023-05-18T00:26:04.709Z,10.78
2023-05-18T00:28:33.278Z,10.61
2023-05-18T00:31:02.171Z,10.72
2023-05-18T00:33:35.814Z,10.63
2023-05-18T00:36:08.193Z,10.67
2023-05-18T00:38:36.895Z,10.68
2023-05-18T00:41:05.482Z,10.50
2023-05-18T00:43:34.151Z,10.54
2023-05-18T00:46:03.507Z,10.44
2023-05-18T00:48:32.182Z,10.21
2023-05-18T00:51:00.726Z,10.35
2023-05-18T00:53:31.294Z,10.40
2023-05-18T00:56:00.051Z,10.47
2023-05-18T00:58:29.834Z,10.53
2023-05-18T01:00:59.300Z,10.47
2023-05-18T01:03:30.310Z,10.38
2023-05-18T01:05:58.685Z,10.19
2023-05-18T01:08:28.555Z,10.31
2023-05-18T01:11:12.749Z,10.32
2023-05-18T01:13:48.568Z,10.16
2023-05-18T01:16:27.179Z,10.17
2023-05-18T01:19:01.992Z,10.08
2023-05-18T01:21:46.411Z,10.19
2023-05-18T01:24:26.924Z,10.21
2023-05-18T01:27:02.112Z,9.69
2023-05-18T01:29:31.483Z,9.69
2023-05-18T01:32:00.134Z,9.64
2023-05-18T01:34:30.793Z,9.81
2023-05-18T01:37:01.498Z,9.61
2023-05-18T01:39:30.123Z,9.70
2023-05-18T01:42:05.038Z,9.59
2023-05-18T01:44:41.098Z,9.52
2023-05-18T01:47:14.786Z,9.49
2023-05-18T01:49:49.484Z,9.54
2023-05-18T01:52:22.618Z,9.62
2023-05-18T01:54:53.695Z,9.68
2023-05-18T01:57:27.151Z,9.58
2023-05-18T01:59:56.338Z,9.58
2023-05-18T02:02:25.183Z,9.51
2023-05-18T02:04:55.823Z,9.56
2023-05-18T02:07:25.859Z,9.46
2023-05-18T02:09:56.897Z,9.48
2023-05-18T02:12:28.889Z,9.57
2023-05-18T02:14:58.518Z,9.52
2023-05-18T02:17:27.380Z,9.51
2023-05-18T02:19:57.179Z,9.39
2023-05-18T02:22:26.325Z,9.29
2023-05-18T02:24:55.171Z,9.18
2023-05-18T02:27:23.647Z,9.29
2023-05-18T02:29:53.718Z,9.21
2023-05-18T02:32:23.794Z,9.16
2023-05-18T02:35:02.837Z,9.24
2023-05-18T02:37:39.939Z,9.06
2023-05-18T02:40:13.458Z,8.97
2023-05-18T02:42:42.961Z,9.05
2023-05-18T02:45:14.778Z,9.16
2023-05-18T02:47:50.521Z,9.04
2023-05-18T02:50:19.860Z,9.12
2023-05-18T02:52:51.778Z,9.14
2023-05-18T02:55:24.358Z,9.03
2023-05-18T02:58:06.175Z,9.12
2023-05-18T03:00:55.379Z,9.06
2023-05-18T03:03:26.169Z,9.14
2023-05-18T03:05:55.237Z,9.21
2023-05-18T03:08:24.046Z,9.20
2023-05-18T03:10:59.984Z,9.19
2023-05-18T03:13:28.848Z,9.08
2023-05-18T03:16:03.015Z,9.16
2023-05-18T03:18:36.100Z,9.29
2023-05-18T03:21:05.384Z,9.33
2023-05-18T03:23:34.008Z,9.32
2023-05-18T03:26:12.767Z,9.46
2023-05-18T03:28:45.500Z,9.26
2023-05-18T03:31:15.986Z,9.46
2023-05-18T03:33:44.967Z,9.37
2023-05-18T03:36:14.177Z,9.32
2023-05-18T03:38:56.158Z,9.24
2023-05-18T03:41:40.228Z,9.37
2023-05-18T03:44:09.972Z,9.34
2023-05-18T03:46:40.322Z,9.43
2023-05-18T03:49:12.837Z,9.40
2023-05-18T03:51:47.222Z,9.43
2023-05-18T03:54:22.536Z,9.44
2023-05-18T03:57:02.035Z,9.39
2023-05-18T03:59:32.194Z,9.40
2023-05-18T04:02:02.315Z,9.38
2023-05-18T04:04:31.352Z,9.38
2023-05-18T04:07:02.679Z,9.62
2023-05-18T04:09:34.720Z,9.70
2023-05-18T04:12:05.160Z,9.66
2023-05-18T04:14:35.515Z,9.71
2023-05-18T04:17:08.181Z,9.68
2023-05-18T04:19:41.805Z,9.71
2023-05-18T04:22:14.626Z,9.71
2023-05-18T04:24:48.092Z,9.72
2023-05-18T04:27:17.224Z,9.59
2023-05-18T04:29:50.651Z,9.59
2023-05-18T04:32:28.440Z,9.72
2023-05-18T04:35:02.384Z,9.78
2023-05-18T04:38:01.025Z,9.96
2023-05-18T04:48:27.629Z,9.97
2023-05-18T04:50:56.346Z,10.00
2023-05-18T04:53:27.632Z,10.00
2023-05-18T04:55:56.949Z,10.06
2023-05-18T04:58:26.637Z,10.12
2023-05-18T05:00:56.267Z,10.12
2023-05-18T05:03:26.361Z,10.23
2023-05-18T05:05:54.851Z,10.08
2023-05-18T05:08:23.764Z,10.30
2023-05-18T05:10:53.225Z,10.31
2023-05-18T05:13:22.001Z,10.45
2023-05-18T05:15:50.843Z,10.49
2023-05-18T05:18:19.493Z,10.71
2023-05-18T05:20:51.111Z,10.73
2023-05-18T05:23:19.827Z,10.67
2023-05-18T05:25:48.774Z,10.66
2023-05-18T05:28:17.636Z,10.85
2023-05-18T05:30:46.448Z,10.76
2023-05-18T05:33:15.278Z,10.79
2023-05-18T05:35:45.572Z,10.80
2023-05-18T05:38:16.591Z,10.87
2023-05-18T05:40:45.288Z,10.91
2023-05-18T05:43:14.295Z,10.98
2023-05-18T05:45:44.860Z,10.92
2023-05-18T05:48:13.983Z,10.85
2023-05-18T05:50:44.595Z,11.12
2023-05-18T05:53:13.246Z,10.99
2023-05-18T05:55:43.587Z,11.17
2023-05-18T05:58:15.285Z,11.06
2023-05-18T06:00:48.848Z,11.09
2023-05-18T06:03:17.610Z,11.14
2023-05-18T06:05:48.270Z,11.52
2023-05-18T06:08:19.492Z,11.42
2023-05-18T06:10:51.414Z,11.42
2023-05-18T06:13:20.553Z,11.51
2023-05-18T06:16:07.705Z,11.53
2023-05-18T06:18:36.781Z,11.46
2023-05-18T06:21:07.506Z,11.55
2023-05-18T06:23:36.229Z,11.64
2023-05-18T06:26:06.209Z,11.73
2023-05-18T06:29:05.756Z,11.72
2023-05-18T06:31:58.132Z,11.88
2023-05-18T06:34:42.670Z,11.78
2023-05-18T06:37:11.724Z,11.80
2023-05-18T06:39:40.986Z,11.78
2023-05-18T06:42:11.687Z,11.89
2023-05-18T06:44:51.767Z,11.77
2023-05-18T06:47:24.158Z,11.63
2023-05-18T06:49:53.042Z,11.73
2023-05-18T06:52:23.546Z,11.84
2023-05-18T06:54:56.020Z,11.72
2023-05-18T06:57:26.014Z,11.73
2023-05-18T06:59:54.974Z,11.73
2023-05-18T07:02:24.454Z,11.59
2023-05-18T07:04:53.772Z,11.72
2023-05-18T07:07:22.324Z,11.77
2023-05-18T07:09:50.963Z,11.80
2023-05-18T07:12:19.447Z,11.83
2023-05-18T07:14:49.437Z,11.82
2023-05-18T07:17:18.029Z,12.01
2023-05-18T07:19:46.623Z,12.11
2023-05-18T07:22:15.193Z,11.88
2023-05-18T07:24:44.497Z,11.95
2023-05-18T07:27:13.183Z,12.21
2023-05-18T07:29:42.316Z,12.16
2023-05-18T07:32:12.329Z,12.14
2023-05-18T07:34:42.667Z,12.05
2023-05-18T07:37:13.561Z,12.18
2023-05-18T07:39:42.125Z,12.20
2023-05-18T07:42:11.456Z,12.24
2023-05-18T07:44:40.051Z,12.20
2023-05-18T07:47:08.940Z,12.42
2023-05-18T07:49:39.872Z,12.33
2023-05-18T07:52:08.891Z,12.38
2023-05-18T07:54:37.414Z,12.34
2023-05-18T07:57:06.720Z,12.50
2023-05-18T07:59:35.340Z,12.60
2023-05-18T08:02:04.203Z,12.87
2023-05-18T08:04:33.504Z,12.68
2023-05-18T08:07:05.177Z,12.57
2023-05-18T08:09:34.096Z,12.64
2023-05-18T08:12:02.691Z,12.80
2023-05-18T08:14:33.897Z,12.78
2023-05-18T08:17:04.922Z,12.81
2023-05-18T08:19:34.006Z,12.93
2023-05-18T08:22:05.161Z,12.96
2023-05-18T08:24:33.964Z,13.00
2023-05-18T08:27:03.689Z,12.98
2023-05-18T08:29:32.340Z,13.00
2023-05-18T08:32:01.020Z,13.04
2023-05-18T08:34:30.227Z,13.13
2023-05-18T08:36:58.778Z,13.28
2023-05-18T08:39:31.941Z,13.43
2023-05-18T08:42:04.080Z,13.47
2023-05-18T08:44:40.020Z,13.65
2023-05-18T08:48:04.051Z,13.68
2023-05-18T08:50:34.000Z,13.68
2023-05-18T08:53:06.265Z,13.65
2023-05-18T08:55:37.793Z,13.63
2023-05-18T08:58:09.200Z,13.59
2023-05-18T09:00:38.778Z,13.55
2023-05-18T09:03:08.367Z,13.59
2023-05-18T09:05:37.806Z,13.72
2023-05-18T09:08:07.877Z,14.01
2023-05-18T09:10:38.604Z,14.01
2023-05-18T09:13:07.822Z,14.02
2023-05-18T09:15:36.535Z,13.93
2023-05-18T09:18:05.327Z,13.94
2023-05-18T09:20:34.343Z,13.98
2023-05-18T09:23:02.876Z,13.92
2023-05-18T09:25:35.248Z,13.96
2023-05-18T09:28:05.641Z,14.17
2023-05-18T09:30:41.579Z,14.41
2023-05-18T09:33:18.694Z,14.49
2023-05-18T09:35:47.569Z,14.70
2023-05-18T09:38:17.572Z,14.66
2023-05-18T09:40:47.059Z,14.65
2023-05-18T09:43:19.167Z,14.63
2023-05-18T09:45:49.803Z,14.53
2023-05-18T09:48:18.732Z,14.53
2023-05-18T09:50:47.580Z,14.52
2023-05-18T09:53:16.535Z,14.52
2023-05-18T09:55:49.640Z,14.46
2023-05-18T09:58:19.659Z,14.57
2023-05-18T10:00:52.119Z,14.50
2023-05-18T10:03:23.661Z,14.69
2023-05-18T10:05:52.598Z,14.61
2023-05-18T10:08:21.639Z,14.41
2023-05-18T10:10:51.257Z,14.40
2023-05-18T10:13:21.364Z,14.43
2023-05-18T10:15:52.543Z,14.48
2023-05-18T10:18:24.965Z,14.58
2023-05-18T10:20:57.187Z,14.58
2023-05-18T10:23:28.765Z,14.51
2023-05-18T10:25:59.738Z,14.65
2023-05-18T10:28:34.323Z,14.64
2023-05-18T10:31:04.458Z,14.60
2023-05-18T10:33:33.398Z,14.65
2023-05-18T10:36:04.731Z,14.43
2023-05-18T10:38:38.932Z,14.36
2023-05-18T10:41:07.717Z,14.35
2023-05-18T10:43:38.233Z,14.42
2023-05-18T10:46:08.738Z,14.49
2023-05-18T10:48:41.080Z,14.44
2023-05-18T10:51:10.032Z,14.44
2023-05-18T10:53:43.967Z,14.54
2023-05-18T10:56:12.633Z,14.59
2023-05-18T10:58:44.855Z,14.56
2023-05-18T11:01:14.953Z,14.57
2023-05-18T11:03:43.846Z,14.45
2023-05-18T11:06:15.152Z,14.45
2023-05-18T11:08:47.979Z,14.41
2023-05-18T11:11:19.126Z,14.37
2023-05-18T11:13:51.886Z,14.37
2023-05-18T11:16:21.465Z,14.38
2023-05-18T11:18:51.473Z,14.40
2023-05-18T11:21:53.735Z,14.38
2023-05-18T11:24:24.904Z,14.50
2023-05-18T11:26:54.920Z,14.43
2023-05-18T11:29:31.739Z,14.41
2023-05-18T11:32:01.418Z,14.40
2023-05-18T11:34:44.943Z,14.47
2023-05-18T11:37:18.358Z,14.56
2023-05-18T11:40:00.056Z,14.71
2023-05-18T11:42:34.779Z,14.69
2023-05-18T11:45:10.280Z,14.56
2023-05-18T11:47:41.256Z,14.55
2023-05-18T11:50:12.116Z,14.51
2023-05-18T11:52:48.163Z,14.42
2023-05-18T11:55:19.294Z,14.40
2023-05-18T11:57:52.557Z,14.47
2023-05-18T12:00:25.448Z,14.38
2023-05-18T12:02:57.775Z,14.30
2023-05-18T12:05:27.113Z,14.47
2023-05-18T12:07:55.862Z,14.49
2023-05-18T12:10:25.260Z,14.51
2023-05-18T12:12:54.832Z,14.69
2023-05-18T12:15:26.138Z,14.58
2023-05-18T12:17:55.016Z,14.78
2023-05-18T12:20:26.793Z,14.65
2023-05-18T12:22:58.679Z,14.76
2023-05-18T12:25:28.626Z,14.72
2023-05-18T12:27:58.093Z,14.83
2023-05-18T12:30:35.981Z,14.88
2023-05-18T12:33:07.129Z,14.65
2023-05-18T12:35:36.137Z,14.62
2023-05-18T12:38:05.026Z,14.55
2023-05-18T12:40:46.578Z,14.46
2023-05-18T12:43:15.771Z,14.25
2023-05-18T12:45:46.232Z,14.25
2023-05-18T12:48:15.262Z,14.30
2023-05-18T12:50:48.406Z,14.29
2023-05-18T12:53:18.055Z,14.33
2023-05-18T12:55:48.178Z,14.34
2023-05-18T12:58:21.580Z,14.34
2023-05-18T13:00:51.559Z,14.41
2023-05-18T13:03:22.287Z,14.57
2023-05-18T13:06:06.676Z,14.65
2023-05-18T13:08:36.877Z,14.72
2023-05-18T13:11:13.759Z,14.68
2023-05-18T13:14:01.577Z,14.56
2023-05-18T13:16:32.367Z,14.57
2023-05-18T13:19:02.536Z,14.60
2023-05-18T13:21:31.654Z,14.54
2023-05-18T13:24:01.123Z,14.62
2023-05-18T13:26:29.844Z,14.53
2023-05-18T13:29:00.334Z,14.63
2023-05-18T13:31:29.918Z,14.77
2023-05-18T13:34:00.513Z,14.79
2023-05-18T13:36:33.852Z,14.79
2023-05-18T13:39:05.798Z,14.80
2023-05-18T13:41:36.527Z,14.95
2023-05-18T13:44:05.337Z,14.87
2023-05-18T13:46:34.019Z,14.82
2023-05-18T13:49:04.486Z,14.71
2023-05-18T13:51:32.999Z,14.70
2023-05-18T13:54:01.835Z,14.70
2023-05-18T13:56:30.599Z,14.55
2023-05-18T13:58:59.241Z,14.63
2023-05-18T14:01:32.761Z,14.58
2023-05-18T14:04:01.644Z,14.69
2023-05-18T14:06:31.896Z,14.71
2023-05-18T14:09:00.611Z,14.85
2023-05-18T14:11:30.415Z,14.90
2023-05-18T14:13:59.215Z,14.86
2023-05-18T14:16:27.987Z,14.91
2023-05-18T14:18:59.507Z,14.87
2023-05-18T14:21:32.662Z,14.91
2023-05-18T14:24:03.936Z,14.91
2023-05-18T14:26:32.592Z,14.87
2023-05-18T14:29:01.539Z,14.83
2023-05-18T14:31:30.552Z,14.81
2023-05-18T14:33:59.363Z,14.86
2023-05-18T14:36:28.234Z,14.79
2023-05-18T14:38:58.433Z,14.61
2023-05-18T14:41:27.351Z,14.60
2023-05-18T14:43:55.839Z,14.73
2023-05-18T14:46:24.486Z,14.70
2023-05-18T14:48:53.074Z,14.62
2023-05-18T14:51:23.695Z,14.49
2023-05-18T14:53:52.590Z,14.49
2023-05-18T14:56:22.865Z,14.46
2023-05-18T14:58:52.038Z,14.30
2023-05-18T15:01:20.895Z,14.19
2023-05-18T15:03:49.786Z,14.00
2023-05-18T15:06:18.686Z,13.97
2023-05-18T15:08:47.366Z,13.92
2023-05-18T15:11:16.333Z,13.85
2023-05-18T15:13:47.548Z,13.90
2023-05-18T15:16:19.655Z,13.75
2023-05-18T15:18:48.460Z,13.73
2023-05-18T15:21:17.335Z,13.72
2023-05-18T15:23:46.272Z,13.67
2023-05-18T15:26:15.036Z,13.68
2023-05-18T15:28:45.258Z,13.55
2023-05-18T15:31:15.592Z,13.54
2023-05-18T15:33:44.665Z,13.60
2023-05-18T15:36:14.402Z,13.71
2023-05-18T15:38:43.060Z,13.69
2023-05-18T15:41:12.147Z,13.61
2023-05-18T15:43:41.967Z,13.64
2023-05-18T15:46:13.628Z,13.61
2023-05-18T15:48:43.806Z,13.57
2023-05-18T15:51:13.639Z,13.47
2023-05-18T16:00:01.972Z,12.84
2023-05-18T16:02:40.493Z,12.86
2023-05-18T16:05:09.758Z,12.89
2023-05-18T16:07:41.263Z,12.94
2023-05-18T16:10:12.566Z,12.95
2023-05-18T16:12:41.345Z,12.91
2023-05-18T16:15:13.917Z,12.84
2023-05-18T16:17:42.832Z,12.65
2023-05-18T16:20:13.317Z,12.69
2023-05-18T16:22:43.528Z,12.71
2023-05-18T17:28:19.112Z,11.11
2023-05-18T17:30:47.606Z,11.26
2023-05-18T17:33:19.057Z,11.46
2023-05-18T17:35:47.569Z,11.50
2023-05-18T17:38:17.311Z,11.53
2023-05-18T17:40:46.000Z,11.62
2023-05-18T17:43:16.179Z,11.59
2023-05-18T17:45:46.759Z,11.56
2023-05-18T17:48:15.764Z,11.59
2023-05-18T17:50:47.266Z,11.63
2023-05-18T17:53:17.248Z,11.56
2023-05-18T17:55:46.489Z,11.51
2023-05-18T17:58:16.760Z,11.51
2023-05-18T18:00:48.306Z,11.53
2023-05-18T18:03:20.564Z,11.51
2023-05-18T18:05:49.444Z,11.53
2023-05-18T18:08:18.211Z,11.58
2023-05-18T18:10:46.866Z,11.58
2023-05-18T18:13:16.456Z,11.68
2023-05-18T18:15:46.884Z,11.60
2023-05-18T18:18:17.148Z,11.57
2023-05-18T18:20:45.955Z,11.58
2023-05-18T18:23:15.858Z,11.57
2023-05-18T18:25:44.791Z,11.55
2023-05-18T18:28:15.681Z,11.50
2023-05-18T18:30:44.996Z,11.55
2023-05-18T18:33:17.681Z,11.59
2023-05-18T18:35:46.334Z,11.52
2023-05-18T18:38:17.853Z,11.57
2023-05-18T18:40:46.490Z,11.57
2023-05-18T18:43:15.906Z,11.58
2023-05-18T18:45:44.848Z,11.62
2023-05-18T18:48:15.019Z,11.52
2023-05-18T18:50:43.953Z,11.51
2023-05-18T18:53:13.176Z,11.52
2023-05-18T18:55:42.289Z,11.50
2023-05-18T18:58:10.669Z,11.47
2023-05-18T19:00:39.400Z,11.44
2023-05-18T19:03:09.935Z,11.47
2023-05-18T19:05:40.521Z,11.37
2023-05-18T19:08:09.368Z,11.39
2023-05-18T19:10:37.954Z,11.42
2023-05-18T19:13:06.714Z,11.48
2023-05-18T19:15:36.548Z,11.38
2023-05-18T19:18:06.697Z,11.34
2023-05-18T19:20:36.071Z,11.39
2023-05-18T19:23:06.577Z,11.43
2023-05-18T19:25:35.454Z,11.44
2023-05-18T19:28:04.033Z,11.33
2023-05-18T19:30:32.791Z,11.31
2023-05-18T19:33:01.942Z,11.26
2023-05-18T19:38:02.397Z,11.38
2023-05-18T19:40:32.541Z,11.36
2023-05-18T19:43:01.779Z,11.28
2023-05-18T19:45:31.143Z,11.22
2023-05-18T19:47:59.932Z,11.26
2023-05-18T19:50:28.922Z,11.26
2023-05-18T19:52:57.700Z,11.28
2023-05-18T19:55:27.680Z,11.30
2023-05-18T19:57:58.005Z,11.28
2023-05-18T20:00:27.875Z,11.31
2023-05-18T20:02:56.592Z,11.28
2023-05-18T20:05:25.735Z,11.29
2023-05-18T20:07:54.720Z,11.33
2023-05-18T20:10:23.765Z,11.36
2023-05-18T20:12:52.438Z,11.40
2023-05-18T20:15:24.132Z,11.32
2023-05-18T20:19:56.178Z,11.17
2023-05-18T20:22:24.841Z,11.17
2023-05-18T20:24:54.495Z,11.16
2023-05-18T20:27:23.243Z,11.14
2023-05-18T20:29:52.148Z,11.16
2023-05-18T20:32:20.907Z,11.28
2023-05-18T20:34:49.672Z,11.26
2023-05-18T20:37:20.312Z,11.31
2023-05-18T20:39:51.094Z,11.31
2023-05-18T20:42:22.462Z,11.35
2023-05-18T20:44:53.552Z,11.38
2023-05-18T20:47:22.789Z,11.36
2023-05-18T20:49:51.759Z,11.34
2023-05-18T20:52:21.954Z,11.34
2023-05-18T20:54:50.652Z,11.30
2023-05-18T20:57:21.488Z,11.37
2023-05-18T20:59:50.468Z,11.33
2023-05-18T21:02:19.793Z,11.33
2023-05-18T21:04:48.988Z,11.32
2023-05-18T21:07:18.464Z,11.34
2023-05-18T21:09:49.182Z,11.36
2023-05-18T21:12:20.495Z,11.44
2023-05-18T21:14:49.029Z,11.43
2023-05-18T21:17:18.056Z,11.47
2023-05-18T21:19:46.868Z,11.48
2023-05-18T21:22:15.713Z,11.55
2023-05-18T21:24:44.588Z,11.56
2023-05-18T21:27:15.065Z,11.54
2023-05-18T21:29:43.844Z,11.56
2023-05-18T21:32:12.790Z,11.62
2023-05-18T21:34:43.691Z,11.64
2023-05-18T21:37:12.537Z,11.67
2023-05-18T21:39:42.209Z,11.62
2023-05-18T21:42:10.812Z,11.66
2023-05-18T21:44:40.998Z,11.61
2023-05-18T21:47:10.209Z,11.66
2023-05-18T21:49:38.798Z,11.52
2023-05-18T21:52:07.714Z,11.54
2023-05-18T21:54:37.053Z,11.58
2023-05-18T21:57:05.989Z,11.56
2023-05-18T21:59:34.612Z,11.56
2023-05-18T22:02:04.701Z,11.56
2023-05-18T22:04:33.808Z,11.67
2023-05-18T22:07:02.497Z,11.60
2023-05-18T22:09:31.295Z,11.55
2023-05-18T22:11:59.917Z,11.52
2023-05-18T22:14:31.064Z,11.52
2023-05-18T22:16:59.664Z,11.42
2023-05-18T22:19:29.775Z,11.39
2023-05-18T22:21:58.808Z,11.36
2023-05-18T22:24:27.427Z,11.38
2023-05-18T22:26:56.460Z,11.44
2023-05-18T22:29:25.019Z,11.49
2023-05-18T22:31:53.695Z,11.53
2023-05-18T22:34:22.689Z,11.56
2023-05-18T22:36:52.922Z,11.50
2023-05-18T22:39:21.615Z,11.44
2023-05-18T22:41:50.584Z,11.44
2023-05-18T22:44:19.317Z,11.44
2023-05-18T22:46:48.179Z,11.41
2023-05-18T22:49:17.030Z,11.40
2023-05-18T22:51:45.886Z,11.39
2023-05-18T22:54:15.998Z,11.47
2023-05-18T22:56:44.818Z,11.49
2023-05-18T22:59:13.473Z,11.53
2023-05-18T23:01:42.198Z,11.52
2023-05-18T23:04:13.279Z,11.53
2023-05-18T23:06:42.474Z,11.49
2023-05-18T23:09:11.011Z,11.55
2023-05-18T23:11:41.161Z,11.57
2023-05-18T23:14:10.063Z,11.54
2023-05-18T23:16:42.658Z,11.41
2023-05-18T23:19:12.569Z,11.40
2023-05-18T23:21:41.592Z,11.40
2023-05-18T23:24:12.354Z,11.43
2023-05-18T23:26:44.163Z,11.55
2023-05-18T23:29:13.212Z,11.48
2023-05-18T23:31:41.770Z,11.51
2023-05-18T23:34:11.002Z,11.57
2023-05-18T23:36:42.847Z,11.59
2023-05-18T23:39:11.856Z,11.56
2023-05-18T23:41:41.168Z,11.46
2023-05-18T23:44:14.209Z,11.47
2023-05-18T23:46:43.673Z,11.50
2023-05-18T23:49:12.887Z,11.60
2023-05-18T23:51:43.609Z,11.65
2023-05-18T23:54:13.214Z,11.49
2023-05-18T23:56:42.772Z,11.44
2023-05-18T23:59:13.867Z,11.41
